Terminal Aerodrome Forecast
Issued by NWS North Platte, NE

Home | Current Version | Previous Version | Graphics & Text | Print | Product List | Glossary On
Versions: 1 2 3 4 5 6 7 8 9 10 11 12 13 14 15 16 17 18 19 20
000
FTUS43 KLBF 181138
TAFVTN
TAF
KVTN 181138Z 1812/1912 18016KT P6SM OVC100
     FM181600 19008KT P6SM BKN050
     FM181900 10006KT P6SM VCTS BKN050CB
     FM182100 07008KT P6SM BKN050 PROB30 1821/1823 4SM TSRA OVC025CB
     FM190300 04009KT 6SM SHRA VCTS OVC045CB
     FM191100 02015G23KT 6SM SHRA VCTS OVC008CB=

USA.gov is the U.S. government's official web portal to all federal, state and local government web resources and services.